Latest Weather Observations for Cape Leeuwin

IDW60801

Issued at 10:43 pm WST Wednesday 17 July 2019 (issued every 10 minutes, with the page automatically refreshed every 10 minutes)

About weather observations | Map of weather stations | Latest weather observations for WA | Other Formats
Station Details ID: 009518 Name: CAPE LEEUWIN Lat: -34.37 Lon: 115.14 Height: 13.0 m
Data from the previous 72 hours. | See also: Recent months at Cape Leeuwin
Date/Time
WST
Temp
°C
App
Temp
°C
Dew
Point
°C
Rel
Hum
%
Delta-T
°C
Wind Press
QNH
hPa
Press
MSL
hPa
Rain since
9am
mm
Dir  Spd
km/h
Gust
km/h
Spd
kts
Gust
kts
17/10:30pm 16.8 12.4 13.0 78 2.1 SW 28 32 15 17 1019.6 1019.6 0.4
17/10:00pm 16.8 11.4 12.8 77 2.2 WSW 33 39 18 21 1019.7 1019.7 0.4
17/09:30pm 16.8 11.7 13.6 81 1.8 WSW 33 39 18 21 1019.7 1019.7 0.4
17/09:00pm 16.6 11.5 14.7 88 1.1 WSW 35 41 19 22 1019.6 1019.6 0.4
17/08:46pm 17.1 10.6 13.9 81 1.8 W 41 54 22 29 1019.6 1019.6 0.4
17/08:30pm 18.0 11.0 13.8 76 2.4 W 43 48 23 26 1019.3 1019.3 0.4
17/08:00pm 17.8 11.5 14.5 81 1.9 WNW 41 48 22 26 1019.1 1019.1 0.4
17/07:30pm 17.6 11.3 15.7 89 1.1 WNW 43 54 23 29 1019.1 1019.1 0.4
17/07:00pm 18.4 11.5 14.6 78 2.2 WNW 44 52 24 28 1018.8 1018.8 0.0
17/06:30pm 18.4 10.9 14.0 75 2.5 WNW 46 54 25 29 1018.7 1018.7 0.0
17/06:00pm 18.5 10.5 13.6 73 2.8 WNW 48 57 26 31 1018.5 1018.5 0.0
17/05:30pm 18.5 9.9 13.0 70 3.1 WNW 50 57 27 31 1018.5 1018.5 0.0
17/05:00pm 18.5 10.6 13.8 74 2.7 NW 48 57 26 31 1018.4 1018.4 0.0
17/04:30pm 18.0 10.5 13.8 76 2.4 NW 46 59 25 32 1018.4 1018.4 0.0
17/04:00pm 18.6 10.7 13.7 73 2.8 NW 48 57 26 31 1018.6 1018.6 0.0
17/03:30pm 18.6 11.1 12.7 68 3.3 NW 44 54 24 29 1018.6 1018.6 0.0
17/03:00pm 19.0 10.9 11.9 63 3.9 NW 46 54 25 29 1018.5 1018.5 0.0
17/02:30pm 19.1 11.0 12.1 64 3.9 NW 46 54 25 29 1018.4 1018.4 0.0
17/02:00pm 18.8 10.7 11.9 64 3.8 NW 46 56 25 30 1018.5 1018.5 0.0
17/01:30pm 19.3 11.2 12.1 63 4.0 NW 46 57 25 31 1018.4 1018.4 0.0
17/01:00pm 19.0 11.1 11.3 61 4.2 NW 44 56 24 30 1018.7 1018.7 0.0
17/12:30pm 19.1 11.2 11.4 61 4.2 NW 44 52 24 28 1019.2 1019.2 0.0
17/12:00pm 18.9 10.6 11.4 61 4.1 NW 46 56 25 30 1020.2 1020.2 0.0
17/11:30am 18.7 10.9 11.8 64 3.8 NW 44 54 24 29 1020.8 1020.8 0.0
17/11:00am 18.6 11.0 11.9 65 3.7 NW 43 50 23 27 1021.1 1021.1 0.0
17/10:46am 18.6 14.5 12.7 68 3.3 NNW 26 46 14 25 1021.3 1021.3 0.0
17/10:30am 18.8 15.6 13.1 69 3.2 N 22 30 12 16 1021.4 1021.4 0.0
17/10:00am 17.8 13.5 12.0 69 3.2 NNW 26 39 14 21 1021.5 1021.5 0.0
17/09:30am 16.8 13.8 12.4 75 2.4 N 20 26 11 14 1021.5 1021.5 0.0
17/09:00am 15.9 12.0 12.0 77 2.1 N 24 32 13 17 1021.6 1021.6 0.0
17/08:30am 15.5 11.6 12.2 81 1.8 N 24 32 13 17 1021.8 1021.8 0.0
17/08:00am 14.8 10.9 12.2 84 1.4 N 24 32 13 17 1021.8 1021.8 0.0
17/07:30am 14.3 10.3 11.9 85 1.3 N 24 30 13 16 1021.8 1021.8 0.0
17/07:00am 14.7 10.7 11.9 83 1.5 N 24 30 13 16 1021.9 1021.9 0.0
17/06:30am 14.9 10.9 11.9 82 1.6 N 24 32 13 17 1022.1 1022.1 0.0
17/06:00am 14.9 11.4 12.1 83 1.5 N 22 30 12 16 1022.3 1022.3 0.0
17/05:30am 14.8 10.9 12.2 84 1.4 N 24 30 13 16 1022.5 1022.5 0.0
17/05:00am 14.9 11.4 12.1 83 1.5 N 22 32 12 17 1022.4 1022.4 0.0
17/04:30am 14.9 12.0 12.9 88 1.1 N 20 26 11 14 1022.6 1022.6 0.0
17/04:00am 15.0 12.0 12.6 85 1.3 N 20 24 11 13 1022.8 1022.8 0.0
17/03:30am 15.2 12.4 13.2 88 1.1 N 20 26 11 14 1023.1 1023.1 0.0
17/03:00am 15.2 12.4 12.6 84 1.4 N 19 24 10 13 1023.4 1023.4 0.0
17/02:30am 15.2 11.8 11.3 77 2.1 N 20 24 11 13 1023.7 1023.7 0.0
17/02:00am 15.0 11.6 10.4 74 2.4 N 19 24 10 13 1023.9 1023.9 0.0
17/01:30am 14.7 10.9 9.9 73 2.5 N 20 24 11 13 1024.2 1024.2 0.0
17/01:00am 14.4 10.7 9.5 72 2.5 N 19 22 10 12 1024.6 1024.6 0.0
17/12:30am 14.3 11.3 10.5 78 2.0 N 17 19 9 10 1024.9 1024.9 0.0
17/12:00am 14.7 11.8 11.1 79 1.9 N 17 19 9 10 1025.3 1025.3 0.0
 
Date/Time
WST
Temp
°C
App
Temp
°C
Dew
Point
°C
Rel
Hum
%
Delta-T
°C
Wind Press
QNH
hPa
Press
MSL
hPa
Rain since
9am
mm
Dir  Spd
km/h
Gust
km/h
Spd
kts
Gust
kts
16/11:30pm 14.7 12.2 11.1 79 1.9 N 15 17 8 9 1025.7 1025.7 0.0
16/11:00pm 15.0 12.6 11.4 79 1.9 N 15 15 8 8 1026.0 1026.0 0.0
16/10:30pm 15.0 13.4 11.4 79 1.9 N 11 13 6 7 1026.4 1026.4 0.0
16/10:00pm 15.0 13.7 11.4 79 1.9 N 9 11 5 6 1026.6 1026.6 0.0
16/09:30pm 15.0 13.7 11.2 78 2.0 N 9 11 5 6 1026.6 1026.6 0.0
16/09:00pm 15.1 13.4 11.3 78 2.0 N 11 11 6 6 1026.7 1026.7 0.0
16/08:30pm 15.2 14.0 11.7 79 1.9 N 9 11 5 6 1026.7 1026.7 0.0
16/08:00pm 15.3 14.2 11.8 79 1.9 N 9 11 5 6 1026.7 1026.7 0.0
16/07:30pm 15.8 14.7 12.1 78 2.0 NNW 9 11 5 6 1026.7 1026.7 0.0
16/07:00pm 16.4 15.1 12.4 77 2.2 NNW 11 13 6 7 1026.5 1026.5 0.0
16/06:30pm 16.6 14.8 12.2 75 2.4 NNW 13 15 7 8 1026.4 1026.4 0.0
16/06:00pm 17.8 15.3 12.4 70 3.0 NW 17 20 9 11 1026.3 1026.3 0.0
16/05:30pm 17.9 14.9 12.1 69 3.2 NW 19 20 10 11 1026.2 1026.2 0.0
16/05:00pm 18.3 15.2 12.1 67 3.4 NW 20 24 11 13 1026.2 1026.2 0.0
16/04:30pm 18.8 15.8 11.9 64 3.8 NW 19 22 10 12 1026.3 1026.3 0.0
16/04:00pm 19.1 15.9 12.0 63 3.9 NW 20 24 11 13 1026.3 1026.3 0.0
16/03:30pm 19.1 15.5 12.0 63 3.9 NW 22 26 12 14 1026.2 1026.2 0.0
16/03:00pm 18.9 15.0 12.2 65 3.7 NW 24 30 13 16 1026.2 1026.2 0.0
16/02:30pm 19.1 14.5 11.2 60 4.3 NW 26 30 14 16 1026.2 1026.2 0.0
16/02:00pm 19.7 15.2 11.5 59 4.5 NW 26 30 14 16 1026.3 1026.3 0.0
16/01:30pm 19.5 15.1 11.7 60 4.3 NW 26 30 14 16 1026.5 1026.5 0.0
16/01:00pm 18.7 13.0 9.8 56 4.7 NW 30 35 16 19 1026.8 1026.8 0.0
16/12:30pm 19.6 14.1 10.5 55 4.9 NW 30 35 16 19 1027.1 1027.1 0.0
16/12:00pm 18.8 13.8 11.0 60 4.2 NW 28 32 15 17 1027.6 1027.6 0.0
16/11:30am 19.2 15.2 11.9 62 4.0 NNW 24 28 13 15 1028.0 1028.0 0.0
16/11:00am 18.4 13.8 11.0 62 4.0 NNW 26 30 14 16 1028.3 1028.3 0.0
16/10:30am 18.2 14.5 10.3 60 4.2 NNW 20 28 11 15 1028.4 1028.4 0.0
16/10:00am 17.6 13.9 10.2 62 3.9 N 20 26 11 14 1028.3 1028.3 0.0
16/09:30am 16.8 13.2 10.6 67 3.3 N 20 26 11 14 1028.2 1028.2 0.0
16/09:00am 16.1 12.1 10.6 70 2.9 N 22 30 12 16 1028.1 1028.1 0.0
16/08:30am 15.2 10.9 10.6 74 2.4 N 24 33 13 18 1028.0 1028.0 0.0
16/08:00am 14.7 10.1 10.9 78 2.0 N 26 35 14 19 1027.9 1027.9 0.0
16/07:30am 14.2 9.1 10.6 79 1.9 N 28 33 15 18 1027.7 1027.7 0.0
16/07:00am 14.1 9.3 10.2 77 2.0 N 26 32 14 17 1027.5 1027.5 0.0
16/06:30am 14.2 9.3 9.9 75 2.2 N 26 33 14 18 1027.2 1027.2 0.0
16/06:00am 14.4 9.5 10.1 75 2.2 N 26 35 14 19 1026.9 1026.9 0.0
16/05:30am 14.7 9.5 10.1 74 2.4 N 28 37 15 20 1026.7 1026.7 0.0
16/05:00am 14.4 9.0 8.2 66 3.1 N 26 32 14 17 1026.9 1026.9 0.0
16/04:30am 13.9 8.6 6.6 61 3.5 NNE 24 32 13 17 1027.0 1027.0 0.0
16/04:00am 13.8 8.5 7.0 63 3.3 NNE 24 30 13 16 1027.2 1027.2 0.0
16/03:30am 13.4 8.6 7.2 66 3.0 NNE 22 28 12 15 1027.3 1027.3 0.0
16/03:00am 13.0 7.8 7.4 69 2.7 NNE 24 30 13 16 1027.5 1027.5 0.0
16/02:30am 13.2 8.6 8.3 72 2.4 NNE 22 28 12 15 1027.7 1027.7 0.0
16/02:00am 13.1 9.0 8.7 74 2.2 NNE 20 26 11 14 1027.9 1027.9 0.0
16/01:30am 13.2 8.9 9.2 77 2.0 NNE 22 30 12 16 1027.8 1027.8 0.0
16/01:00am 13.2 9.1 8.6 73 2.3 NNE 20 26 11 14 1027.9 1027.9 0.0
16/12:30am 13.4 9.3 8.6 73 2.4 NNE 20 26 11 14 1028.3 1028.3 0.0
16/12:00am 14.0 9.8 8.4 69 2.8 N 20 24 11 13 1028.6 1028.6 0.0
 
Date/Time
WST
Temp
°C
App
Temp
°C
Dew
Point
°C
Rel
Hum
%
Delta-T
°C
Wind Press
QNH
hPa
Press
MSL
hPa
Rain since
9am
mm
Dir  Spd
km/h
Gust
km/h
Spd
kts
Gust
kts
15/11:30pm 14.5 10.4 8.5 67 3.0 N 20 26 11 14 1028.7 1028.7 0.0
15/11:00pm 13.6 9.5 8.8 73 2.4 NNE 20 26 11 14 1028.8 1028.8 0.0
15/10:30pm 13.6 9.7 8.8 73 2.4 NNE 19 22 10 12 1028.9 1028.9 0.0
15/10:00pm 13.8 9.7 8.8 72 2.5 NNE 20 26 11 14 1029.0 1029.0 0.0
15/09:30pm 13.7 9.6 8.7 72 2.5 NNE 20 26 11 14 1028.9 1028.9 0.0
15/09:00pm 13.6 9.4 8.4 71 2.6 NNE 20 26 11 14 1029.0 1029.0 0.0
15/08:30pm 13.7 9.5 8.2 69 2.7 NNE 20 24 11 13 1029.1 1029.1 0.0
15/08:00pm 13.7 9.6 8.5 71 2.6 NNE 20 24 11 13 1029.1 1029.1 0.0
15/07:30pm 13.5 9.4 8.7 73 2.4 NNE 20 24 11 13 1029.2 1029.2 0.0
15/07:00pm 13.8 10.0 9.0 73 2.4 NNE 19 20 10 11 1029.0 1029.0 0.0
15/06:30pm 14.0 10.6 9.3 73 2.4 NNE 17 20 9 11 1028.8 1028.8 0.0
15/06:00pm 14.0 10.3 9.3 73 2.4 NNE 19 20 10 11 1028.6 1028.6 0.0
15/05:30pm 14.3 11.3 9.4 72 2.5 NNE 15 17 8 9 1028.5 1028.5 0.0
15/05:00pm 15.9 13.4 9.7 66 3.2 NNE 13 15 7 8 1028.4 1028.4 0.0
15/04:30pm 17.8 15.4 8.6 55 4.7 N 11 15 6 8 1028.4 1028.4 0.0
15/04:00pm 18.5 14.3 7.6 49 5.5 N 19 24 10 13 1028.2 1028.2 0.0
15/03:30pm 18.8 15.4 7.8 48 5.6 N 15 20 8 11 1028.0 1028.0 0.0
15/03:00pm 19.0 15.6 7.8 48 5.7 N 15 24 8 13 1028.0 1028.0 0.0
15/02:30pm 19.1 15.0 7.7 47 5.8 N 19 30 10 16 1028.1 1028.1 0.0
15/02:00pm 18.9 14.3 6.6 44 6.1 NNW 20 26 11 14 1028.1 1028.1 0.0
15/01:30pm 19.0 14.7 6.8 45 6.1 N 19 28 10 15 1028.3 1028.3 0.0
15/01:00pm 18.7 14.2 6.3 44 6.1 NNE 19 26 10 14 1028.7 1028.7 0.0
15/12:30pm 18.4 13.9 5.9 44 6.1 N 19 26 10 14 1029.3 1029.3 0.0
15/12:00pm 17.7 12.6 6.0 46 5.7 NNE 22 32 12 17 1029.9 1029.9 0.0
15/11:30am 17.1 12.6 7.0 51 5.0 NNE 20 32 11 17 1030.3 1030.3 0.0
15/11:00am 16.1 10.6 5.9 50 4.9 NNE 24 37 13 20 1030.7 1030.7 0.0
15/10:30am 14.8 8.1 5.4 53 4.4 NNE 30 37 16 20 1030.9 1030.9 0.0
15/10:00am 13.7 6.5 4.8 55 4.1 NNE 32 44 17 24 1031.0 1031.0 0.0
15/09:30am 12.7 5.3 4.8 58 3.6 NNE 33 41 18 22 1031.1 1031.1 0.0
15/09:00am 11.9 4.7 4.8 62 3.2 NNE 32 41 17 22 1030.9 1030.9 0.0
15/08:30am 11.2 4.0 5.0 65 2.8 NE 32 39 17 21 1030.8 1030.8 0.0
15/08:00am 11.1 3.3 4.9 65 2.8 NNE 35 41 19 22 1030.7 1030.7 0.0
15/07:30am 11.1 3.2 4.6 64 2.9 NNE 35 43 19 23 1030.7 1030.7 0.0
15/07:00am 10.9 3.1 4.9 66 2.7 NNE 35 44 19 24 1030.6 1030.6 0.0
15/06:30am 10.6 2.9 5.3 70 2.4 NE 35 41 19 22 1030.5 1030.5 0.0
15/06:00am 11.1 3.4 5.4 68 2.6 NE 35 41 19 22 1030.3 1030.3 0.0
15/05:30am 10.7 4.0 5.7 71 2.3 NE 30 39 16 21 1030.4 1030.4 0.0
15/05:00am 10.7 4.0 5.4 70 2.4 NE 30 37 16 20 1030.5 1030.5 0.0
15/04:30am 10.7 5.2 5.7 71 2.3 NE 24 33 13 18 1030.6 1030.6 0.0
15/04:00am 10.9 6.1 5.7 70 2.4 NE 20 30 11 16 1030.8 1030.8 0.0
15/03:30am 11.2 4.5 5.8 69 2.5 NE 30 37 16 20 1030.3 1030.3 0.0
15/03:00am 11.5 3.9 5.6 67 2.7 NE 35 43 19 23 1030.2 1030.2 0.0
15/02:30am 11.9 4.3 5.9 66 2.8 NE 35 44 19 24 1030.5 1030.5 0.0
15/02:00am 12.0 4.8 6.0 66 2.8 NE 33 46 18 25 1030.8 1030.8 0.0
15/01:30am 11.9 4.9 6.1 67 2.7 NE 32 43 17 23 1030.9 1030.9 0.0
15/01:00am 12.2 4.4 6.7 69 2.6 NE 37 44 20 24 1030.3 1030.3 0.0
15/12:30am 12.6 4.6 7.6 71 2.4 NE 39 46 21 25 1030.4 1030.4 0.0
15/12:00am 13.2 5.7 8.1 71 2.5 ENE 37 43 20 23 1030.8 1030.8 0.0
 
Date/Time
WST
Temp
°C
App
Temp
°C
Dew
Point
°C
Rel
Hum
%
Delta-T
°C
Wind Press
QNH
hPa
Press
MSL
hPa
Rain since
9am
mm
Dir  Spd
km/h
Gust
km/h
Spd
kts
Gust
kts
14/11:30pm 13.7 5.1 8.2 69 2.7 ENE 43 46 23 25 1030.8 1030.8 0.0
14/11:00pm 14.0 5.9 8.6 70 2.7 ENE 41 46 22 25 1031.0 1031.0 0.0

Other formats

Comma delimited format used in spreadsheet applications
http://www.bom.gov.au/fwo/IDW60801/IDW60801.94601.axf

JavaScript Object Notation format (JSON) in row-major order
http://www.bom.gov.au/fwo/IDW60801/IDW60801.94601.json

Data quality

Most of these data are generated automatically and are frequently updated. Quality checks on data are not normally performed. It is possible for incorrect values to appear. Refer to information at About Latest Weather Observations and please check the disclaimer before using these data.